sensor_id;sensor_type;location;lat;lon;timestamp;temperature;humidity
59301;DHT22;45073;52.740;6.784;2022-09-09T00:01:07;15.30;99.90
59301;DHT22;45073;52.740;6.784;2022-09-09T00:03:45;15.40;99.90
59301;DHT22;45073;52.740;6.784;2022-09-09T00:06:30;15.40;99.90
59301;DHT22;45073;52.740;6.784;2022-09-09T00:09:13;15.30;99.90
59301;DHT22;45073;52.740;6.784;2022-09-09T00:11:41;15.30;99.90
59301;DHT22;45073;52.740;6.784;2022-09-09T00:14:11;15.30;99.90
59301;DHT22;45073;52.740;6.784;2022-09-09T00:16:38;15.30;99.90
59301;DHT22;45073;52.740;6.784;2022-09-09T00:22:12;15.30;99.90
59301;DHT22;45073;52.740;6.784;2022-09-09T00:24:49;15.30;99.90
59301;DHT22;45073;52.740;6.784;2022-09-09T00:29:49;15.30;99.90
59301;DHT22;45073;52.740;6.784;2022-09-09T00:32:19;15.30;99.90
59301;DHT22;45073;52.740;6.784;2022-09-09T00:34:47;15.30;99.90
59301;DHT22;45073;52.740;6.784;2022-09-09T00:37:13;15.20;99.90
59301;DHT22;45073;52.740;6.784;2022-09-09T00:39:40;15.20;99.90
59301;DHT22;45073;52.740;6.784;2022-09-09T00:42:26;15.20;99.90
59301;DHT22;45073;52.740;6.784;2022-09-09T00:45:16;15.20;99.90
59301;DHT22;45073;52.740;6.784;2022-09-09T00:50:22;15.20;99.90
59301;DHT22;45073;52.740;6.784;2022-09-09T00:58:08;15.20;99.90
59301;DHT22;45073;52.740;6.784;2022-09-09T01:00:48;15.20;99.90
59301;DHT22;45073;52.740;6.784;2022-09-09T01:11:22;15.20;99.90
59301;DHT22;45073;52.740;6.784;2022-09-09T01:13:52;15.30;99.90
59301;DHT22;45073;52.740;6.784;2022-09-09T01:16:18;15.20;99.90
59301;DHT22;45073;52.740;6.784;2022-09-09T01:18:44;15.30;99.90
59301;DHT22;45073;52.740;6.784;2022-09-09T01:21:21;15.30;99.90
59301;DHT22;45073;52.740;6.784;2022-09-09T01:24:00;15.30;99.90
59301;DHT22;45073;52.740;6.784;2022-09-09T01:26:37;15.30;99.90
59301;DHT22;45073;52.740;6.784;2022-09-09T01:29:08;15.30;99.90
59301;DHT22;45073;52.740;6.784;2022-09-09T01:31:38;15.30;99.90
59301;DHT22;45073;52.740;6.784;2022-09-09T01:34:10;15.30;99.90
59301;DHT22;45073;52.740;6.784;2022-09-09T01:36:46;15.30;99.90
59301;DHT22;45073;52.740;6.784;2022-09-09T01:39:15;15.30;99.90
59301;DHT22;45073;52.740;6.784;2022-09-09T01:41:41;15.30;99.90
59301;DHT22;45073;52.740;6.784;2022-09-09T01:44:06;15.30;99.90
59301;DHT22;45073;52.740;6.784;2022-09-09T01:46:33;15.20;99.90
59301;DHT22;45073;52.740;6.784;2022-09-09T01:48:58;15.30;99.90
59301;DHT22;45073;52.740;6.784;2022-09-09T01:51:24;15.30;99.90
59301;DHT22;45073;52.740;6.784;2022-09-09T01:53:49;15.30;99.90
59301;DHT22;45073;52.740;6.784;2022-09-09T02:01:43;15.20;99.90
59301;DHT22;45073;52.740;6.784;2022-09-09T02:04:17;15.20;99.90
59301;DHT22;45073;52.740;6.784;2022-09-09T02:06:43;15.20;99.90
59301;DHT22;45073;52.740;6.784;2022-09-09T02:09:11;15.20;99.90
59301;DHT22;45073;52.740;6.784;2022-09-09T02:11:38;15.20;99.90
59301;DHT22;45073;52.740;6.784;2022-09-09T02:14:08;15.20;99.90
59301;DHT22;45073;52.740;6.784;2022-09-09T02:16:39;15.20;99.90
59301;DHT22;45073;52.740;6.784;2022-09-09T02:19:16;15.20;99.90
59301;DHT22;45073;52.740;6.784;2022-09-09T02:21:52;15.20;99.90
59301;DHT22;45073;52.740;6.784;2022-09-09T02:24:18;15.20;99.90
59301;DHT22;45073;52.740;6.784;2022-09-09T02:26:44;15.20;99.90
59301;DHT22;45073;52.740;6.784;2022-09-09T02:29:13;15.20;99.90
59301;DHT22;45073;52.740;6.784;2022-09-09T02:31:39;15.20;99.90
59301;DHT22;45073;52.740;6.784;2022-09-09T02:34:06;15.20;99.90
59301;DHT22;45073;52.740;6.784;2022-09-09T02:36:36;15.20;99.90
59301;DHT22;45073;52.740;6.784;2022-09-09T02:39:02;15.20;99.90
59301;DHT22;45073;52.740;6.784;2022-09-09T02:41:33;15.20;99.90
59301;DHT22;45073;52.740;6.784;2022-09-09T02:44:00;15.20;99.90
59301;DHT22;45073;52.740;6.784;2022-09-09T02:46:36;15.20;99.90
59301;DHT22;45073;52.740;6.784;2022-09-09T02:49:07;15.20;99.90
59301;DHT22;45073;52.740;6.784;2022-09-09T02:51:40;15.10;99.90
59301;DHT22;45073;52.740;6.784;2022-09-09T02:56:55;15.20;99.90
59301;DHT22;45073;52.740;6.784;2022-09-09T02:59:24;15.10;99.90
59301;DHT22;45073;52.740;6.784;2022-09-09T03:01:50;15.10;99.90
59301;DHT22;45073;52.740;6.784;2022-09-09T03:04:15;15.10;99.90
59301;DHT22;45073;52.740;6.784;2022-09-09T03:06:41;15.10;99.90
59301;DHT22;45073;52.740;6.784;2022-09-09T03:09:06;15.10;99.90
59301;DHT22;45073;52.740;6.784;2022-09-09T03:11:33;15.10;99.90
59301;DHT22;45073;52.740;6.784;2022-09-09T03:13:58;15.10;99.90
59301;DHT22;45073;52.740;6.784;2022-09-09T03:16:24;15.10;99.90
59301;DHT22;45073;52.740;6.784;2022-09-09T03:18:49;15.10;99.90
59301;DHT22;45073;52.740;6.784;2022-09-09T03:21:15;15.10;99.90
59301;DHT22;45073;52.740;6.784;2022-09-09T03:23:40;15.10;99.90
59301;DHT22;45073;52.740;6.784;2022-09-09T03:26:06;15.10;99.90
59301;DHT22;45073;52.740;6.784;2022-09-09T03:28:32;15.10;99.90
59301;DHT22;45073;52.740;6.784;2022-09-09T03:30:59;15.20;99.90
59301;DHT22;45073;52.740;6.784;2022-09-09T03:33:24;15.10;99.90
59301;DHT22;45073;52.740;6.784;2022-09-09T03:35:50;15.10;99.90
59301;DHT22;45073;52.740;6.784;2022-09-09T03:38:16;15.10;99.90
59301;DHT22;45073;52.740;6.784;2022-09-09T03:40:52;15.10;99.90
59301;DHT22;45073;52.740;6.784;2022-09-09T03:43:24;15.10;99.90
59301;DHT22;45073;52.740;6.784;2022-09-09T03:45:50;15.00;99.90
59301;DHT22;45073;52.740;6.784;2022-09-09T03:48:16;15.00;99.90
59301;DHT22;45073;52.740;6.784;2022-09-09T03:50:45;15.10;99.90
59301;DHT22;45073;52.740;6.784;2022-09-09T03:53:11;15.00;99.90
59301;DHT22;45073;52.740;6.784;2022-09-09T03:55:36;15.10;99.90
59301;DHT22;45073;52.740;6.784;2022-09-09T03:58:02;15.00;99.90
59301;DHT22;45073;52.740;6.784;2022-09-09T04:00:27;15.00;99.90
59301;DHT22;45073;52.740;6.784;2022-09-09T04:02:54;15.00;99.90
59301;DHT22;45073;52.740;6.784;2022-09-09T04:05:23;15.00;99.90
59301;DHT22;45073;52.740;6.784;2022-09-09T04:07:48;15.00;99.90
59301;DHT22;45073;52.740;6.784;2022-09-09T04:10:13;15.00;99.90
59301;DHT22;45073;52.740;6.784;2022-09-09T04:12:40;15.00;99.90
59301;DHT22;45073;52.740;6.784;2022-09-09T04:15:06;15.00;99.90
59301;DHT22;45073;52.740;6.784;2022-09-09T04:17:32;15.00;99.90
59301;DHT22;45073;52.740;6.784;2022-09-09T04:19:58;15.00;99.90
59301;DHT22;45073;52.740;6.784;2022-09-09T04:22:23;15.00;99.90
59301;DHT22;45073;52.740;6.784;2022-09-09T04:24:49;15.00;99.90
59301;DHT22;45073;52.740;6.784;2022-09-09T04:27:14;15.00;99.90
59301;DHT22;45073;52.740;6.784;2022-09-09T04:29:40;15.00;99.90
59301;DHT22;45073;52.740;6.784;2022-09-09T04:32:05;15.00;99.90
59301;DHT22;45073;52.740;6.784;2022-09-09T04:34:31;15.00;99.90
59301;DHT22;45073;52.740;6.784;2022-09-09T04:36:56;15.00;99.90
59301;DHT22;45073;52.740;6.784;2022-09-09T04:39:22;15.00;99.90
59301;DHT22;45073;52.740;6.784;2022-09-09T04:41:47;14.90;99.90
59301;DHT22;45073;52.740;6.784;2022-09-09T04:44:13;14.90;99.90
59301;DHT22;45073;52.740;6.784;2022-09-09T04:46:39;14.90;99.90
59301;DHT22;45073;52.740;6.784;2022-09-09T04:49:06;14.90;99.90
59301;DHT22;45073;52.740;6.784;2022-09-09T04:51:31;14.90;99.90
59301;DHT22;45073;52.740;6.784;2022-09-09T04:53:56;14.90;99.90
59301;DHT22;45073;52.740;6.784;2022-09-09T04:56:22;14.90;99.90
59301;DHT22;45073;52.740;6.784;2022-09-09T04:58:47;14.80;99.90
59301;DHT22;45073;52.740;6.784;2022-09-09T05:01:14;14.80;99.90
59301;DHT22;45073;52.740;6.784;2022-09-09T05:03:40;14.80;99.90
59301;DHT22;45073;52.740;6.784;2022-09-09T05:06:06;14.80;99.90
59301;DHT22;45073;52.740;6.784;2022-09-09T05:08:33;14.80;99.90
59301;DHT22;45073;52.740;6.784;2022-09-09T05:10:59;14.80;99.90
59301;DHT22;45073;52.740;6.784;2022-09-09T05:13:25;14.80;99.90
59301;DHT22;45073;52.740;6.784;2022-09-09T05:15:54;14.80;99.90
59301;DHT22;45073;52.740;6.784;2022-09-09T05:18:20;14.80;99.90
59301;DHT22;45073;52.740;6.784;2022-09-09T05:20:46;14.80;99.90
59301;DHT22;45073;52.740;6.784;2022-09-09T05:23:12;14.70;99.90
59301;DHT22;45073;52.740;6.784;2022-09-09T05:25:38;14.70;99.90
59301;DHT22;45073;52.740;6.784;2022-09-09T05:28:04;14.70;99.90
59301;DHT22;45073;52.740;6.784;2022-09-09T05:30:30;14.70;99.90
59301;DHT22;45073;52.740;6.784;2022-09-09T05:32:56;14.70;99.90
59301;DHT22;45073;52.740;6.784;2022-09-09T05:35:21;14.70;99.90
59301;DHT22;45073;52.740;6.784;2022-09-09T05:37:48;14.70;99.90
59301;DHT22;45073;52.740;6.784;2022-09-09T05:40:14;14.80;99.90
59301;DHT22;45073;52.740;6.784;2022-09-09T05:42:39;14.70;99.90
59301;DHT22;45073;52.740;6.784;2022-09-09T05:45:06;14.80;99.90
59301;DHT22;45073;52.740;6.784;2022-09-09T05:47:33;14.80;99.90
59301;DHT22;45073;52.740;6.784;2022-09-09T05:49:58;14.80;99.90
59301;DHT22;45073;52.740;6.784;2022-09-09T05:52:24;14.80;99.90
59301;DHT22;45073;52.740;6.784;2022-09-09T05:54:51;14.80;99.90
59301;DHT22;45073;52.740;6.784;2022-09-09T05:57:17;14.90;99.90
59301;DHT22;45073;52.740;6.784;2022-09-09T05:59:44;14.90;99.90
59301;DHT22;45073;52.740;6.784;2022-09-09T06:02:09;14.90;99.90
59301;DHT22;45073;52.740;6.784;2022-09-09T06:04:35;14.90;99.90
59301;DHT22;45073;52.740;6.784;2022-09-09T06:07:00;14.90;99.90
59301;DHT22;45073;52.740;6.784;2022-09-09T06:09:26;14.90;99.90
59301;DHT22;45073;52.740;6.784;2022-09-09T06:11:52;14.90;99.90
59301;DHT22;45073;52.740;6.784;2022-09-09T06:14:17;14.90;99.90
59301;DHT22;45073;52.740;6.784;2022-09-09T06:16:47;14.90;99.90
59301;DHT22;45073;52.740;6.784;2022-09-09T06:19:12;14.90;99.90
59301;DHT22;45073;52.740;6.784;2022-09-09T06:21:38;15.00;99.90
59301;DHT22;45073;52.740;6.784;2022-09-09T06:24:04;15.00;99.90
59301;DHT22;45073;52.740;6.784;2022-09-09T06:26:30;15.00;99.90
59301;DHT22;45073;52.740;6.784;2022-09-09T06:28:56;15.00;99.90
59301;DHT22;45073;52.740;6.784;2022-09-09T06:31:24;15.00;99.90
59301;DHT22;45073;52.740;6.784;2022-09-09T06:33:50;15.00;99.90
59301;DHT22;45073;52.740;6.784;2022-09-09T06:36:17;15.10;99.90
59301;DHT22;45073;52.740;6.784;2022-09-09T06:38:43;15.10;99.90
59301;DHT22;45073;52.740;6.784;2022-09-09T06:41:09;15.10;99.90
59301;DHT22;45073;52.740;6.784;2022-09-09T06:43:35;15.10;99.90
59301;DHT22;45073;52.740;6.784;2022-09-09T06:46:02;15.20;99.90
59301;DHT22;45073;52.740;6.784;2022-09-09T06:48:27;15.20;99.90
59301;DHT22;45073;52.740;6.784;2022-09-09T06:51:00;15.20;99.90
59301;DHT22;45073;52.740;6.784;2022-09-09T06:53:26;15.30;99.90
59301;DHT22;45073;52.740;6.784;2022-09-09T06:55:52;15.30;99.90
59301;DHT22;45073;52.740;6.784;2022-09-09T06:58:17;15.30;99.90
59301;DHT22;45073;52.740;6.784;2022-09-09T07:00:43;15.30;99.90
59301;DHT22;45073;52.740;6.784;2022-09-09T07:03:09;15.40;99.90
59301;DHT22;45073;52.740;6.784;2022-09-09T07:05:35;15.50;99.90
59301;DHT22;45073;52.740;6.784;2022-09-09T07:08:00;15.50;99.90
59301;DHT22;45073;52.740;6.784;2022-09-09T07:10:26;15.60;99.90
59301;DHT22;45073;52.740;6.784;2022-09-09T07:12:51;15.60;99.90
59301;DHT22;45073;52.740;6.784;2022-09-09T07:15:18;15.70;99.90
59301;DHT22;45073;52.740;6.784;2022-09-09T07:17:44;15.70;99.90
59301;DHT22;45073;52.740;6.784;2022-09-09T07:20:09;15.80;99.90
59301;DHT22;45073;52.740;6.784;2022-09-09T07:22:35;15.90;99.90
59301;DHT22;45073;52.740;6.784;2022-09-09T07:25:01;15.90;99.90
59301;DHT22;45073;52.740;6.784;2022-09-09T07:27:27;16.00;99.90
59301;DHT22;45073;52.740;6.784;2022-09-09T07:29:53;16.00;99.90
59301;DHT22;45073;52.740;6.784;2022-09-09T07:32:19;16.00;99.90
59301;DHT22;45073;52.740;6.784;2022-09-09T07:34:45;16.00;99.90
59301;DHT22;45073;52.740;6.784;2022-09-09T07:37:12;16.10;99.90
59301;DHT22;45073;52.740;6.784;2022-09-09T07:39:39;16.10;99.90
59301;DHT22;45073;52.740;6.784;2022-09-09T07:42:04;16.20;99.90
59301;DHT22;45073;52.740;6.784;2022-09-09T07:44:30;16.30;99.90
59301;DHT22;45073;52.740;6.784;2022-09-09T07:46:57;16.30;99.90
59301;DHT22;45073;52.740;6.784;2022-09-09T07:49:23;16.40;99.90
59301;DHT22;45073;52.740;6.784;2022-09-09T07:51:48;16.40;99.90
59301;DHT22;45073;52.740;6.784;2022-09-09T07:54:16;16.50;99.90
59301;DHT22;45073;52.740;6.784;2022-09-09T07:56:45;16.50;99.90
59301;DHT22;45073;52.740;6.784;2022-09-09T07:59:10;16.50;99.90
59301;DHT22;45073;52.740;6.784;2022-09-09T08:01:41;16.60;99.90
59301;DHT22;45073;52.740;6.784;2022-09-09T08:04:08;16.60;99.90
59301;DHT22;45073;52.740;6.784;2022-09-09T08:06:35;16.60;99.90
59301;DHT22;45073;52.740;6.784;2022-09-09T08:09:01;16.60;99.90
59301;DHT22;45073;52.740;6.784;2022-09-09T08:11:27;16.70;99.90
59301;DHT22;45073;52.740;6.784;2022-09-09T08:13:53;16.70;99.90
59301;DHT22;45073;52.740;6.784;2022-09-09T08:16:20;16.70;99.90
59301;DHT22;45073;52.740;6.784;2022-09-09T08:18:52;16.80;99.90
59301;DHT22;45073;52.740;6.784;2022-09-09T08:21:20;16.90;99.90
59301;DHT22;45073;52.740;6.784;2022-09-09T08:23:46;16.90;99.90
59301;DHT22;45073;52.740;6.784;2022-09-09T08:26:13;17.00;99.90
59301;DHT22;45073;52.740;6.784;2022-09-09T08:28:40;17.10;99.90
59301;DHT22;45073;52.740;6.784;2022-09-09T08:31:10;17.10;99.90
59301;DHT22;45073;52.740;6.784;2022-09-09T08:33:35;17.10;99.90
59301;DHT22;45073;52.740;6.784;2022-09-09T08:36:03;17.20;99.90
59301;DHT22;45073;52.740;6.784;2022-09-09T08:38:29;17.20;99.90
59301;DHT22;45073;52.740;6.784;2022-09-09T08:40:56;17.20;99.90
59301;DHT22;45073;52.740;6.784;2022-09-09T08:43:26;17.20;99.90
59301;DHT22;45073;52.740;6.784;2022-09-09T08:45:59;17.20;99.90
59301;DHT22;45073;52.740;6.784;2022-09-09T08:50:52;17.30;99.90
59301;DHT22;45073;52.740;6.784;2022-09-09T08:53:26;17.40;99.90
59301;DHT22;45073;52.740;6.784;2022-09-09T08:56:02;17.40;99.90
59301;DHT22;45073;52.740;6.784;2022-09-09T08:58:29;17.50;99.90
59301;DHT22;45073;52.740;6.784;2022-09-09T09:01:09;17.70;99.90
59301;DHT22;45073;52.740;6.784;2022-09-09T09:11:48;17.70;99.90
59301;DHT22;45073;52.740;6.784;2022-09-09T09:14:17;17.70;99.90
59301;DHT22;45073;52.740;6.784;2022-09-09T09:16:50;17.70;99.90
59301;DHT22;45073;52.740;6.784;2022-09-09T09:19:16;17.80;99.90
59301;DHT22;45073;52.740;6.784;2022-09-09T09:21:43;17.80;99.90
59301;DHT22;45073;52.740;6.784;2022-09-09T09:24:44;17.80;99.90
59301;DHT22;45073;52.740;6.784;2022-09-09T09:27:06;17.80;99.90
59301;DHT22;45073;52.740;6.784;2022-09-09T09:29:35;17.90;99.90
59301;DHT22;45073;52.740;6.784;2022-09-09T09:32:02;18.00;99.90
59301;DHT22;45073;52.740;6.784;2022-09-09T09:34:28;18.10;99.90
59301;DHT22;45073;52.740;6.784;2022-09-09T09:36:55;18.20;99.90
59301;DHT22;45073;52.740;6.784;2022-09-09T09:39:25;18.40;99.90
59301;DHT22;45073;52.740;6.784;2022-09-09T09:41:51;18.60;99.90
59301;DHT22;45073;52.740;6.784;2022-09-09T09:44:27;18.80;99.90
59301;DHT22;45073;52.740;6.784;2022-09-09T09:47:04;18.80;99.90
59301;DHT22;45073;52.740;6.784;2022-09-09T09:49:30;18.90;99.90
59301;DHT22;45073;52.740;6.784;2022-09-09T09:51:59;18.90;99.90
59301;DHT22;45073;52.740;6.784;2022-09-09T09:54:27;18.80;99.90
59301;DHT22;45073;52.740;6.784;2022-09-09T09:56:54;18.80;99.90
59301;DHT22;45073;52.740;6.784;2022-09-09T09:59:20;18.90;99.90
59301;DHT22;45073;52.740;6.784;2022-09-09T10:01:46;18.90;99.90
59301;DHT22;45073;52.740;6.784;2022-09-09T10:04:18;18.90;99.90
59301;DHT22;45073;52.740;6.784;2022-09-09T10:06:46;18.90;99.90
59301;DHT22;45073;52.740;6.784;2022-09-09T10:09:28;19.00;99.90
59301;DHT22;45073;52.740;6.784;2022-09-09T10:14:43;19.00;99.90
59301;DHT22;45073;52.740;6.784;2022-09-09T10:20:06;19.00;99.90
59301;DHT22;45073;52.740;6.784;2022-09-09T10:22:36;19.00;99.90
59301;DHT22;45073;52.740;6.784;2022-09-09T10:25:17;18.90;99.90
59301;DHT22;45073;52.740;6.784;2022-09-09T10:27:52;18.90;99.90
59301;DHT22;45073;52.740;6.784;2022-09-09T10:30:41;19.10;99.90
59301;DHT22;45073;52.740;6.784;2022-09-09T10:48:47;19.50;99.90
59301;DHT22;45073;52.740;6.784;2022-09-09T10:51:22;19.60;99.90
59301;DHT22;45073;52.740;6.784;2022-09-09T10:56:15;19.80;99.90
59301;DHT22;45073;52.740;6.784;2022-09-09T10:58:47;20.00;99.90
59301;DHT22;45073;52.740;6.784;2022-09-09T11:01:57;20.10;99.90
59301;DHT22;45073;52.740;6.784;2022-09-09T11:04:10;20.20;99.90
59301;DHT22;45073;52.740;6.784;2022-09-09T11:06:39;20.20;99.90
59301;DHT22;45073;52.740;6.784;2022-09-09T11:09:08;20.10;99.90
59301;DHT22;45073;52.740;6.784;2022-09-09T11:11:41;20.00;99.90
59301;DHT22;45073;52.740;6.784;2022-09-09T11:14:10;20.10;99.90
59301;DHT22;45073;52.740;6.784;2022-09-09T11:19:14;20.20;99.90
59301;DHT22;45073;52.740;6.784;2022-09-09T11:21:42;20.30;99.90
59301;DHT22;45073;52.740;6.784;2022-09-09T11:24:23;20.40;99.90
59301;DHT22;45073;52.740;6.784;2022-09-09T11:27:08;20.40;99.90
59301;DHT22;45073;52.740;6.784;2022-09-09T11:32:18;20.60;99.90
59301;DHT22;45073;52.740;6.784;2022-09-09T11:34:53;20.70;99.90
59301;DHT22;45073;52.740;6.784;2022-09-09T11:42:31;20.40;99.90
59301;DHT22;45073;52.740;6.784;2022-09-09T11:44:57;20.30;99.90
59301;DHT22;45073;52.740;6.784;2022-09-09T11:47:26;20.30;99.90
59301;DHT22;45073;52.740;6.784;2022-09-09T11:55:08;20.10;99.90
59301;DHT22;45073;52.740;6.784;2022-09-09T11:57:35;20.20;99.90
59301;DHT22;45073;52.740;6.784;2022-09-09T12:00:00;20.20;99.90
59301;DHT22;45073;52.740;6.784;2022-09-09T12:02:27;20.30;99.90
59301;DHT22;45073;52.740;6.784;2022-09-09T12:07:23;20.50;99.90
59301;DHT22;45073;52.740;6.784;2022-09-09T12:12:48;20.70;99.90
59301;DHT22;45073;52.740;6.784;2022-09-09T12:15:21;20.70;99.90
59301;DHT22;45073;52.740;6.784;2022-09-09T12:17:50;20.70;99.90
59301;DHT22;45073;52.740;6.784;2022-09-09T12:25:18;20.50;99.90
59301;DHT22;45073;52.740;6.784;2022-09-09T12:28:00;20.60;99.90
59301;DHT22;45073;52.740;6.784;2022-09-09T12:30:29;20.50;99.90
59301;DHT22;45073;52.740;6.784;2022-09-09T12:33:00;20.60;99.90
59301;DHT22;45073;52.740;6.784;2022-09-09T12:35:26;20.50;99.90
59301;DHT22;45073;52.740;6.784;2022-09-09T12:37:57;20.50;99.90
59301;DHT22;45073;52.740;6.784;2022-09-09T12:40:25;20.50;99.90
59301;DHT22;45073;52.740;6.784;2022-09-09T12:42:51;20.40;99.90
59301;DHT22;45073;52.740;6.784;2022-09-09T12:45:17;20.40;99.90
59301;DHT22;45073;52.740;6.784;2022-09-09T12:47:49;20.30;99.90
59301;DHT22;45073;52.740;6.784;2022-09-09T12:50:42;20.30;99.90
59301;DHT22;45073;52.740;6.784;2022-09-09T12:53:36;20.30;99.90
59301;DHT22;45073;52.740;6.784;2022-09-09T12:56:01;20.20;99.90
59301;DHT22;45073;52.740;6.784;2022-09-09T12:58:28;20.20;99.90
59301;DHT22;45073;52.740;6.784;2022-09-09T13:00:58;20.10;99.90
59301;DHT22;45073;52.740;6.784;2022-09-09T13:03:24;20.00;99.90
59301;DHT22;45073;52.740;6.784;2022-09-09T13:05:53;19.90;99.90
59301;DHT22;45073;52.740;6.784;2022-09-09T13:08:19;19.90;99.90
59301;DHT22;45073;52.740;6.784;2022-09-09T13:13:13;20.00;99.90
59301;DHT22;45073;52.740;6.784;2022-09-09T13:15:47;20.20;99.90
59301;DHT22;45073;52.740;6.784;2022-09-09T13:18:14;20.50;99.90
59301;DHT22;45073;52.740;6.784;2022-09-09T13:20:45;20.90;99.90
59301;DHT22;45073;52.740;6.784;2022-09-09T13:23:11;21.30;99.90
59301;DHT22;45073;52.740;6.784;2022-09-09T13:25:37;21.60;99.90
59301;DHT22;45073;52.740;6.784;2022-09-09T13:28:04;21.60;99.90
59301;DHT22;45073;52.740;6.784;2022-09-09T13:30:36;21.50;99.90
59301;DHT22;45073;52.740;6.784;2022-09-09T13:35:34;21.30;99.90
59301;DHT22;45073;52.740;6.784;2022-09-09T13:38:07;21.20;99.90
59301;DHT22;45073;52.740;6.784;2022-09-09T13:40:34;21.10;99.90
59301;DHT22;45073;52.740;6.784;2022-09-09T13:42:59;21.00;99.90
59301;DHT22;45073;52.740;6.784;2022-09-09T13:45:25;20.90;99.90
59301;DHT22;45073;52.740;6.784;2022-09-09T13:47:54;20.80;99.90
59301;DHT22;45073;52.740;6.784;2022-09-09T13:50:24;20.80;99.90
59301;DHT22;45073;52.740;6.784;2022-09-09T13:52:52;20.90;99.90
59301;DHT22;45073;52.740;6.784;2022-09-09T13:55:18;20.80;99.90
59301;DHT22;45073;52.740;6.784;2022-09-09T13:57:51;20.60;99.90
59301;DHT22;45073;52.740;6.784;2022-09-09T14:00:17;20.50;99.90
59301;DHT22;45073;52.740;6.784;2022-09-09T14:02:42;20.40;99.90
59301;DHT22;45073;52.740;6.784;2022-09-09T14:05:09;20.10;99.90
59301;DHT22;45073;52.740;6.784;2022-09-09T14:07:36;19.70;99.90
59301;DHT22;45073;52.740;6.784;2022-09-09T14:10:03;19.30;99.90
59301;DHT22;45073;52.740;6.784;2022-09-09T14:12:28;19.00;99.90
59301;DHT22;45073;52.740;6.784;2022-09-09T14:14:54;18.90;99.90
59301;DHT22;45073;52.740;6.784;2022-09-09T14:17:19;18.80;99.90
59301;DHT22;45073;52.740;6.784;2022-09-09T14:19:45;18.70;99.90
59301;DHT22;45073;52.740;6.784;2022-09-09T14:22:11;18.70;99.90
59301;DHT22;45073;52.740;6.784;2022-09-09T14:24:37;18.80;99.90
59301;DHT22;45073;52.740;6.784;2022-09-09T14:27:02;18.90;99.90
59301;DHT22;45073;52.740;6.784;2022-09-09T14:29:28;19.10;99.90
59301;DHT22;45073;52.740;6.784;2022-09-09T14:31:53;19.30;99.90
59301;DHT22;45073;52.740;6.784;2022-09-09T14:34:19;19.30;99.90
59301;DHT22;45073;52.740;6.784;2022-09-09T14:36:44;19.40;99.90
59301;DHT22;45073;52.740;6.784;2022-09-09T14:39:10;19.50;99.90
59301;DHT22;45073;52.740;6.784;2022-09-09T14:41:36;19.70;99.90
59301;DHT22;45073;52.740;6.784;2022-09-09T14:44:02;20.00;99.90
59301;DHT22;45073;52.740;6.784;2022-09-09T14:46:28;20.20;99.90
59301;DHT22;45073;52.740;6.784;2022-09-09T14:48:53;20.30;99.90
59301;DHT22;45073;52.740;6.784;2022-09-09T14:51:20;20.40;99.90
59301;DHT22;45073;52.740;6.784;2022-09-09T14:53:47;20.50;99.90
59301;DHT22;45073;52.740;6.784;2022-09-09T14:56:14;20.50;99.90
59301;DHT22;45073;52.740;6.784;2022-09-09T14:58:40;20.60;99.90
59301;DHT22;45073;52.740;6.784;2022-09-09T15:01:13;20.60;99.90
59301;DHT22;45073;52.740;6.784;2022-09-09T15:03:39;20.50;99.90
59301;DHT22;45073;52.740;6.784;2022-09-09T15:06:09;20.40;99.90
59301;DHT22;45073;52.740;6.784;2022-09-09T15:08:35;20.20;99.90
59301;DHT22;45073;52.740;6.784;2022-09-09T15:11:01;20.10;99.90
59301;DHT22;45073;52.740;6.784;2022-09-09T15:13:27;20.10;99.90
59301;DHT22;45073;52.740;6.784;2022-09-09T15:15:53;20.00;99.90
59301;DHT22;45073;52.740;6.784;2022-09-09T15:18:19;19.90;99.90
59301;DHT22;45073;52.740;6.784;2022-09-09T15:20:45;19.80;99.90
59301;DHT22;45073;52.740;6.784;2022-09-09T15:23:12;19.80;99.90
59301;DHT22;45073;52.740;6.784;2022-09-09T15:25:37;19.80;99.90
59301;DHT22;45073;52.740;6.784;2022-09-09T15:28:02;19.80;99.90
59301;DHT22;45073;52.740;6.784;2022-09-09T15:30:28;19.80;99.90
59301;DHT22;45073;52.740;6.784;2022-09-09T15:32:53;19.70;99.90
59301;DHT22;45073;52.740;6.784;2022-09-09T15:35:20;19.70;99.90
59301;DHT22;45073;52.740;6.784;2022-09-09T15:37:45;19.60;99.90
59301;DHT22;45073;52.740;6.784;2022-09-09T15:40:11;19.60;99.90
59301;DHT22;45073;52.740;6.784;2022-09-09T15:42:36;19.50;99.90
59301;DHT22;45073;52.740;6.784;2022-09-09T15:45:02;19.50;99.90
59301;DHT22;45073;52.740;6.784;2022-09-09T15:47:28;19.50;99.90
59301;DHT22;45073;52.740;6.784;2022-09-09T15:49:53;19.50;99.90
59301;DHT22;45073;52.740;6.784;2022-09-09T15:52:19;19.50;99.90
59301;DHT22;45073;52.740;6.784;2022-09-09T15:54:44;19.50;99.90
59301;DHT22;45073;52.740;6.784;2022-09-09T15:57:14;19.50;99.90
59301;DHT22;45073;52.740;6.784;2022-09-09T15:59:39;19.50;99.90
59301;DHT22;45073;52.740;6.784;2022-09-09T16:02:05;19.60;99.90
59301;DHT22;45073;52.740;6.784;2022-09-09T16:04:31;19.60;99.90
59301;DHT22;45073;52.740;6.784;2022-09-09T16:07:02;19.60;99.90
59301;DHT22;45073;52.740;6.784;2022-09-09T16:09:28;19.60;99.90
59301;DHT22;45073;52.740;6.784;2022-09-09T16:11:57;19.50;99.90
59301;DHT22;45073;52.740;6.784;2022-09-09T16:14:23;19.50;99.90
59301;DHT22;45073;52.740;6.784;2022-09-09T16:16:50;19.40;99.90
59301;DHT22;45073;52.740;6.784;2022-09-09T16:19:15;19.40;99.90
59301;DHT22;45073;52.740;6.784;2022-09-09T16:21:48;19.40;99.90
59301;DHT22;45073;52.740;6.784;2022-09-09T16:24:14;19.40;99.90
59301;DHT22;45073;52.740;6.784;2022-09-09T16:26:44;19.30;99.90
59301;DHT22;45073;52.740;6.784;2022-09-09T16:29:10;19.30;99.90
59301;DHT22;45073;52.740;6.784;2022-09-09T16:31:36;19.30;99.90
59301;DHT22;45073;52.740;6.784;2022-09-09T16:34:02;19.30;99.90
59301;DHT22;45073;52.740;6.784;2022-09-09T16:36:29;19.30;99.90
59301;DHT22;45073;52.740;6.784;2022-09-09T16:38:56;19.20;99.90
59301;DHT22;45073;52.740;6.784;2022-09-09T16:41:22;19.20;99.90
59301;DHT22;45073;52.740;6.784;2022-09-09T16:43:51;19.20;99.90
59301;DHT22;45073;52.740;6.784;2022-09-09T16:46:18;19.10;99.90
59301;DHT22;45073;52.740;6.784;2022-09-09T16:48:45;19.10;99.90
59301;DHT22;45073;52.740;6.784;2022-09-09T16:51:17;19.00;99.90
59301;DHT22;45073;52.740;6.784;2022-09-09T16:53:43;19.00;99.90
59301;DHT22;45073;52.740;6.784;2022-09-09T16:56:31;19.00;99.90
59301;DHT22;45073;52.740;6.784;2022-09-09T16:58:56;18.90;99.90
59301;DHT22;45073;52.740;6.784;2022-09-09T17:01:22;18.90;99.90
59301;DHT22;45073;52.740;6.784;2022-09-09T17:03:52;18.90;99.90
59301;DHT22;45073;52.740;6.784;2022-09-09T17:06:17;18.80;99.90
59301;DHT22;45073;52.740;6.784;2022-09-09T17:08:43;18.80;99.90
59301;DHT22;45073;52.740;6.784;2022-09-09T17:11:12;18.80;99.90